Roberts International Airport

Jump to: basic info | weather | frequencies | runways | comments

Related pages: nearby airports | nearby navaids | notams | map

Basic information (top)

Codes: ROB GLRB
Location: lon 6.233790, lat -10.362300, elev 31 ft / 9 m msl
Status: medium_airport
Scheduled airline service: yes
Links: Wikipedia Mobile

Weather (top)

Current conditions (rec'd 2014/10/31 09:30Z):

GLRB 310930Z 00000KT 9999 SCT014 BKN100 28/24 Q1014 NOSIG

Airport forecast (rec'd 2014/10/31 06:33Z):

TAF TAF GLRB 310400Z 3106/0112 26008KT 7000 RA FEW004 BKN014 FEW023CB 
     FM310700 20010KT 4000 RA/TSRA SCT003 OVC015 FEW025CB 
      BECMG 3112/3114 26012KT 9000 BKN016 FEW027CB 
      TEMPO 3115/3120 27008KT 7000 TSRA SCT004 BKN014 FEW025CB

Frequencies (top)

Verify before use: may be inaccurate or out of date.

A/G: 345.2 MHz (A/G VOICE RDO)
APP: 124.5 MHz (ROBERTS APP)
GND: 121.9 MHz (GND)
TWR: 118.3 MHz (ROBERTS TWR)

Runways (top)

04/22: 11,000 x 150 ft (3,353 x 46 m) — paved — lighted — threshold 22 displaced 1,200 ft (366 m)

Latest comments (top)

No comments yet for Roberts International Airport

More... (top)

See also NOTAMs and nearby airports and navaids, or visit the Roberts International Airport page at the main OurAirports website..